createdAt,value
2019-03-11T00:01:30.253Z,12.43
2019-03-11T00:04:00.803Z,12.63
2019-03-11T00:06:29.351Z,11.97
2019-03-11T00:08:57.897Z,12.77
2019-03-11T00:11:29.843Z,11.13
2019-03-11T00:14:00.055Z,11.67
2019-03-11T00:16:28.512Z,11.03
2019-03-11T00:18:58.488Z,11.20
2019-03-11T00:21:28.375Z,10.25
2019-03-11T00:23:56.853Z,9.70
2019-03-11T00:26:25.393Z,9.30
2019-03-11T00:28:56.804Z,8.43
2019-03-11T00:31:28.461Z,8.43
2019-03-11T00:33:56.933Z,7.83
2019-03-11T00:36:27.241Z,9.27
2019-03-11T00:38:57.494Z,8.58
2019-03-11T00:41:28.546Z,8.15
2019-03-11T00:44:03.373Z,7.90
2019-03-11T00:46:31.822Z,7.37
2019-03-11T00:49:00.301Z,8.77
2019-03-11T00:51:33.033Z,6.80
2019-03-11T00:54:01.615Z,7.93
2019-03-11T00:56:33.490Z,7.97
2019-03-11T00:59:05.346Z,7.43
2019-03-11T01:01:33.867Z,6.80
2019-03-11T01:04:03.238Z,6.70
2019-03-11T01:06:31.786Z,7.60
2019-03-11T01:09:00.307Z,6.63
2019-03-11T01:11:32.058Z,7.67
2019-03-11T01:14:00.515Z,9.07
2019-03-11T01:16:33.450Z,7.87
2019-03-11T01:19:04.278Z,7.77
2019-03-11T01:21:32.742Z,9.43
2019-03-11T01:24:01.287Z,11.73
2019-03-11T01:26:34.145Z,8.53
2019-03-11T01:29:02.682Z,8.00
2019-03-11T01:31:31.203Z,9.27
2019-03-11T01:34:01.741Z,9.37
2019-03-11T01:36:32.161Z,9.20
2019-03-11T01:41:30.578Z,9.80
2019-03-11T01:43:59.759Z,7.80
2019-03-11T01:46:28.227Z,9.43
2019-03-11T01:49:01.031Z,7.77
2019-03-11T01:51:29.497Z,7.70
2019-03-11T01:54:00.156Z,8.03
2019-03-11T01:56:28.697Z,8.33
2019-03-11T01:58:57.237Z,6.97
2019-03-11T02:01:29.621Z,7.50
2019-03-11T02:03:58.089Z,8.13
2019-03-11T02:06:27.088Z,7.97
2019-03-11T02:08:57.980Z,7.87
2019-03-11T02:11:26.483Z,8.37
2019-03-11T02:13:56.949Z,9.80
2019-03-11T02:18:56.880Z,9.10
2019-03-11T02:21:25.333Z,8.63
2019-03-11T02:23:53.859Z,8.73
2019-03-11T02:26:23.371Z,8.47
2019-03-11T02:28:51.891Z,8.75
2019-03-11T02:31:20.351Z,9.10
2019-03-11T02:33:52.199Z,7.53
2019-03-11T02:36:20.730Z,7.53
2019-03-11T02:38:49.274Z,7.43
2019-03-11T02:41:20.318Z,7.43
2019-03-11T02:43:51.447Z,7.80
2019-03-11T02:46:26.603Z,8.33
2019-03-11T02:48:55.129Z,6.97
2019-03-11T02:51:23.669Z,7.60
2019-03-11T02:53:52.869Z,7.13
2019-03-11T02:56:21.417Z,7.10
2019-03-11T02:58:49.956Z,6.77
2019-03-11T03:01:30.701Z,5.80
2019-03-11T03:04:15.772Z,5.87
2019-03-11T03:06:44.987Z,5.50
2019-03-11T03:09:14.473Z,5.17
2019-03-11T03:11:43.088Z,4.75
2019-03-11T03:14:14.515Z,3.97
2019-03-11T03:16:43.039Z,4.23
2019-03-11T03:19:14.506Z,4.20
2019-03-11T03:21:49.718Z,3.50
2019-03-11T03:24:20.444Z,4.13
2019-03-11T03:26:48.973Z,4.30
2019-03-11T03:29:20.389Z,4.90
2019-03-11T03:31:48.923Z,5.27
2019-03-11T03:34:17.436Z,5.37
2019-03-11T03:36:46.786Z,5.40
2019-03-11T03:39:15.306Z,7.43
2019-03-11T03:41:43.830Z,6.03
2019-03-11T03:44:14.974Z,6.93
2019-03-11T03:46:44.869Z,7.33
2019-03-11T03:49:17.459Z,7.80
2019-03-11T03:51:45.910Z,7.57
2019-03-11T03:54:14.359Z,7.83
2019-03-11T03:56:44.165Z,7.53
2019-03-11T03:59:12.687Z,8.58
2019-03-11T04:01:42.954Z,7.60
2019-03-11T04:04:11.426Z,7.95
2019-03-11T04:06:39.952Z,7.10
2019-03-11T04:09:13.337Z,8.47
2019-03-11T04:11:41.879Z,8.57
2019-03-11T04:14:10.925Z,7.77
2019-03-11T04:16:41.226Z,7.67
2019-03-11T04:21:42.408Z,7.50
2019-03-11T04:24:13.565Z,7.13
2019-03-11T04:26:42.237Z,7.10
2019-03-11T04:29:11.069Z,6.80
2019-03-11T04:31:40.362Z,7.60
2019-03-11T04:34:08.869Z,6.90
2019-03-11T04:36:37.319Z,7.10
2019-03-11T04:39:09.271Z,7.13
2019-03-11T04:41:37.745Z,8.50
2019-03-11T04:44:06.997Z,6.87
2019-03-11T04:46:36.267Z,8.37
2019-03-11T04:49:06.172Z,8.03
2019-03-11T04:51:34.624Z,8.43
2019-03-11T04:54:04.902Z,9.10
2019-03-11T04:59:12.534Z,9.50
2019-03-11T05:01:44.017Z,9.83
2019-03-11T05:04:12.468Z,9.80
2019-03-11T05:06:40.942Z,9.30
2019-03-11T05:09:11.763Z,10.27
2019-03-11T05:11:40.229Z,10.20
2019-03-11T05:14:08.759Z,10.90
2019-03-11T05:16:38.141Z,9.80
2019-03-11T05:19:21.914Z,10.27
2019-03-11T05:21:54.153Z,8.70
2019-03-11T05:24:24.385Z,10.00
2019-03-11T05:26:52.915Z,10.53
2019-03-11T05:29:21.373Z,10.33
2019-03-11T05:31:52.697Z,11.80
2019-03-11T05:34:21.162Z,9.03
2019-03-11T05:36:49.618Z,11.63
2019-03-11T05:39:21.750Z,9.80
2019-03-11T05:41:53.707Z,8.57
2019-03-11T05:44:22.231Z,8.27
2019-03-11T05:46:52.199Z,9.53
2019-03-11T05:49:20.740Z,8.95
2019-03-11T05:51:52.470Z,8.40
2019-03-11T05:54:25.345Z,8.77
2019-03-11T05:56:53.921Z,8.50
2019-03-11T05:59:23.835Z,8.07
2019-03-11T06:01:54.590Z,7.42
2019-03-11T06:04:25.526Z,6.53
2019-03-11T06:06:54.058Z,6.80
2019-03-11T06:09:22.598Z,6.63
2019-03-11T06:11:52.826Z,6.10
2019-03-11T06:14:21.293Z,6.53
2019-03-11T06:16:56.630Z,5.77
2019-03-11T06:19:26.901Z,6.37
2019-03-11T06:22:06.925Z,5.90
2019-03-11T06:24:36.430Z,7.08
2019-03-11T06:27:04.885Z,6.60
2019-03-11T06:29:37.591Z,6.67
2019-03-11T06:32:09.881Z,6.43
2019-03-11T06:34:38.421Z,5.73
2019-03-11T06:37:10.129Z,7.20
2019-03-11T06:39:38.648Z,6.80
2019-03-11T06:42:08.839Z,6.37
2019-03-11T06:44:39.695Z,6.50
2019-03-11T06:47:08.210Z,7.67
2019-03-11T06:49:38.589Z,6.60
2019-03-11T06:54:35.439Z,6.47
2019-03-11T06:57:06.586Z,6.30
2019-03-11T06:59:35.039Z,5.20
2019-03-11T07:02:04.577Z,6.20
2019-03-11T07:04:54.768Z,6.25
2019-03-11T07:07:24.485Z,5.60
2019-03-11T07:09:53.015Z,5.90
2019-03-11T07:12:21.467Z,5.73
2019-03-11T07:14:52.283Z,5.97
2019-03-11T07:17:22.606Z,5.73
2019-03-11T07:19:53.242Z,4.90
2019-03-11T07:22:30.295Z,5.20
2019-03-11T07:25:02.598Z,5.20
2019-03-11T07:27:31.131Z,5.37
2019-03-11T07:29:59.579Z,6.20
2019-03-11T07:32:28.693Z,5.17
2019-03-11T07:35:07.632Z,4.80
2019-03-11T07:37:28.317Z,4.80
2019-03-11T07:39:58.737Z,4.30
2019-03-11T07:44:55.908Z,5.77
2019-03-11T07:47:24.373Z,4.83
2019-03-11T07:49:53.097Z,5.27
2019-03-11T07:52:21.560Z,5.53
2019-03-11T07:54:50.075Z,4.63
2019-03-11T07:57:20.683Z,5.67
2019-03-11T07:59:49.139Z,5.80
2019-03-11T08:02:18.620Z,6.10
2019-03-11T08:04:48.815Z,6.40
2019-03-11T08:07:18.413Z,6.00
2019-03-11T08:09:50.783Z,5.65
2019-03-11T08:12:19.254Z,5.37
2019-03-11T08:14:47.709Z,6.50
2019-03-11T08:17:22.587Z,7.27
2019-03-11T08:19:51.041Z,5.97
2019-03-11T08:22:19.609Z,6.07
2019-03-11T08:24:51.736Z,5.63
2019-03-11T08:27:20.927Z,6.10
2019-03-11T08:29:49.383Z,5.40
2019-03-11T08:32:17.855Z,5.70
2019-03-11T08:34:47.508Z,6.07
2019-03-11T08:37:18.757Z,4.47
2019-03-11T08:39:47.222Z,4.70
2019-03-11T08:42:16.767Z,5.03
2019-03-11T08:44:45.259Z,5.40
2019-03-11T08:47:14.857Z,4.37
2019-03-11T08:49:44.369Z,4.55
2019-03-11T08:52:12.893Z,4.78
2019-03-11T08:54:41.430Z,4.70
2019-03-11T08:57:10.130Z,3.63
2019-03-11T08:59:38.593Z,4.00
2019-03-11T09:02:07.803Z,3.67
2019-03-11T09:04:36.259Z,4.13
2019-03-11T09:07:07.657Z,4.50
2019-03-11T09:09:36.198Z,3.90
2019-03-11T09:12:05.547Z,3.90
2019-03-11T09:14:34.081Z,3.60
2019-03-11T09:17:02.911Z,4.43
2019-03-11T09:19:32.743Z,4.03
2019-03-11T09:22:01.196Z,4.30
2019-03-11T09:24:32.889Z,3.43
2019-03-11T09:27:01.409Z,3.70
2019-03-11T09:29:29.881Z,4.27
2019-03-11T09:31:59.046Z,3.97
2019-03-11T09:34:27.564Z,3.33
2019-03-11T09:36:56.029Z,3.20
2019-03-11T09:39:27.077Z,3.27
2019-03-11T09:41:55.600Z,3.73
2019-03-11T09:44:24.054Z,3.27
2019-03-11T09:46:54.786Z,4.10
2019-03-11T09:49:23.361Z,4.10
2019-03-11T09:51:51.879Z,3.77
2019-03-11T09:54:21.343Z,3.57
2019-03-11T09:56:49.816Z,3.57
2019-03-11T09:59:18.932Z,3.73
2019-03-11T10:01:47.394Z,3.53
2019-03-11T10:04:15.923Z,3.13
2019-03-11T10:06:44.814Z,5.50
2019-03-11T10:09:14.499Z,3.50
2019-03-11T10:11:42.953Z,4.03
2019-03-11T10:14:13.658Z,3.00
2019-03-11T10:16:42.210Z,3.77
2019-03-11T10:19:14.876Z,3.10
2019-03-11T10:21:45.645Z,3.03
2019-03-11T10:24:15.253Z,3.80
2019-03-11T10:26:44.355Z,4.97
2019-03-11T10:29:12.899Z,3.17
2019-03-11T10:31:43.363Z,2.80
2019-03-11T10:36:39.766Z,3.10
2019-03-11T10:39:08.734Z,2.90
2019-03-11T10:41:37.266Z,3.73
2019-03-11T10:44:06.403Z,3.33
2019-03-11T10:46:34.861Z,4.07
2019-03-11T10:49:04.515Z,3.30
2019-03-11T10:51:32.970Z,3.47
2019-03-11T10:54:02.603Z,2.90
2019-03-11T10:56:31.407Z,3.75
2019-03-11T10:58:59.937Z,3.33
2019-03-11T11:01:29.897Z,3.13
2019-03-11T11:04:00.331Z,3.83
2019-03-11T11:06:28.867Z,3.23
2019-03-11T11:08:58.130Z,3.00
2019-03-11T11:11:26.579Z,2.70
2019-03-11T11:13:58.774Z,3.33
2019-03-11T11:16:28.387Z,3.40
2019-03-11T11:18:56.835Z,3.30
2019-03-11T11:21:25.997Z,3.67
2019-03-11T11:23:57.629Z,3.03
2019-03-11T11:26:26.093Z,2.60
2019-03-11T11:28:56.966Z,2.63
2019-03-11T11:31:25.509Z,2.73
2019-03-11T11:33:54.019Z,2.70
2019-03-11T11:36:22.943Z,3.77
2019-03-11T11:38:51.471Z,2.30
2019-03-11T11:41:21.827Z,3.20
2019-03-11T11:43:51.852Z,2.60
2019-03-11T11:46:20.315Z,3.45
2019-03-11T11:48:49.758Z,2.83
2019-03-11T11:51:19.886Z,3.05
2019-03-11T11:53:48.407Z,3.45
2019-03-11T11:56:17.557Z,3.20
2019-03-11T11:58:46.013Z,3.83
2019-03-11T12:01:14.556Z,5.10
2019-03-11T12:03:44.552Z,4.77
2019-03-11T12:06:13.096Z,5.62
2019-03-11T12:08:41.622Z,4.80
2019-03-11T12:11:14.608Z,4.80
2019-03-11T12:13:45.254Z,4.87
2019-03-11T12:16:18.138Z,4.77
2019-03-11T12:18:46.675Z,4.90
2019-03-11T12:21:15.206Z,5.30
2019-03-11T12:23:47.985Z,6.10
2019-03-11T12:26:16.440Z,4.90
2019-03-11T12:28:47.094Z,5.27
2019-03-11T12:31:17.946Z,4.00
2019-03-11T12:33:46.486Z,4.10
2019-03-11T12:36:16.553Z,3.53
2019-03-11T12:38:45.093Z,4.25
2019-03-11T12:41:15.876Z,4.53
2019-03-11T12:43:46.925Z,3.47
2019-03-11T12:46:18.681Z,3.47
2019-03-11T12:48:47.134Z,4.60
2019-03-11T12:51:15.579Z,5.00
2019-03-11T12:53:44.077Z,4.67
2019-03-11T12:56:12.617Z,5.67
2019-03-11T12:58:42.850Z,4.63
2019-03-11T13:01:13.173Z,4.85
2019-03-11T13:03:41.622Z,4.58
2019-03-11T13:06:10.084Z,5.37
2019-03-11T13:08:40.885Z,5.40
2019-03-11T13:11:12.317Z,5.73
2019-03-11T13:13:40.866Z,5.37
2019-03-11T13:16:10.319Z,6.40
2019-03-11T13:18:40.867Z,5.63
2019-03-11T13:21:12.558Z,4.80
2019-03-11T13:23:41.643Z,4.13
2019-03-11T13:26:10.352Z,4.87
2019-03-11T13:28:39.509Z,5.10
2019-03-11T13:31:11.375Z,5.07
2019-03-11T13:33:42.506Z,5.60
2019-03-11T13:36:10.964Z,5.27
2019-03-11T13:38:40.105Z,5.00
2019-03-11T13:41:09.516Z,5.30
2019-03-11T13:43:37.974Z,5.07
2019-03-11T13:46:06.687Z,5.00
2019-03-11T13:48:36.999Z,5.00
2019-03-11T13:51:05.804Z,3.90
2019-03-11T13:53:35.823Z,5.23
2019-03-11T13:56:04.352Z,4.90
2019-03-11T13:58:35.138Z,4.57
2019-03-11T14:01:04.861Z,4.37
2019-03-11T14:03:33.307Z,4.70
2019-03-11T14:06:02.013Z,4.33
2019-03-11T14:08:30.473Z,4.17
2019-03-11T14:11:00.542Z,4.70
2019-03-11T14:13:33.734Z,3.85
2019-03-11T14:16:02.184Z,3.87
2019-03-11T14:18:33.967Z,4.17
2019-03-11T14:21:02.429Z,4.67
2019-03-11T14:23:30.964Z,3.63
2019-03-11T14:26:00.160Z,3.20
2019-03-11T14:28:28.628Z,4.00
2019-03-11T14:30:59.168Z,3.20
2019-03-11T14:35:55.294Z,3.67
2019-03-11T14:38:25.963Z,3.33
2019-03-11T14:40:57.006Z,2.60
2019-03-11T14:43:25.554Z,2.70
2019-03-11T14:45:54.130Z,2.93
2019-03-11T14:48:22.613Z,2.50
2019-03-11T14:50:55.055Z,2.50
2019-03-11T14:53:23.775Z,2.60
2019-03-11T14:55:53.574Z,2.17
2019-03-11T14:58:29.370Z,2.42
2019-03-11T15:00:53.129Z,2.40
2019-03-11T15:03:24.934Z,2.17
2019-03-11T15:05:54.551Z,2.50
2019-03-11T15:08:23.256Z,2.50
2019-03-11T15:10:52.025Z,2.27
2019-03-11T15:13:23.671Z,2.57
2019-03-11T15:15:52.135Z,1.90
2019-03-11T15:18:22.690Z,2.23
2019-03-11T15:23:20.879Z,2.60
2019-03-11T15:25:51.449Z,2.87
2019-03-11T15:28:20.036Z,1.95
2019-03-11T15:30:48.816Z,2.20
2019-03-11T15:33:19.145Z,2.00
2019-03-11T15:38:15.357Z,2.40
2019-03-11T15:40:44.388Z,2.27
2019-03-11T15:43:12.873Z,2.10
2019-03-11T15:45:41.329Z,2.40
2019-03-11T15:48:11.073Z,2.67
2019-03-11T15:50:39.540Z,2.60
2019-03-11T15:53:07.997Z,3.17
2019-03-11T15:55:37.057Z,2.93
2019-03-11T15:58:05.575Z,4.10
2019-03-11T16:00:34.837Z,3.37
2019-03-11T16:03:06.494Z,3.40
2019-03-11T16:05:38.156Z,4.47
2019-03-11T16:08:06.691Z,3.50
2019-03-11T16:10:37.476Z,3.67
2019-03-11T16:13:08.517Z,3.50
2019-03-11T16:15:37.193Z,3.53
2019-03-11T16:18:08.451Z,4.27
2019-03-11T16:20:39.794Z,3.80
2019-03-11T16:23:08.259Z,3.43
2019-03-11T16:25:38.105Z,4.10
2019-03-11T16:28:08.841Z,3.25
2019-03-11T16:30:37.300Z,2.87
2019-03-11T16:33:06.014Z,3.20
2019-03-11T16:35:34.481Z,3.90
2019-03-11T16:38:02.940Z,3.97
2019-03-11T16:40:33.829Z,8.10
2019-03-11T16:43:02.274Z,7.63
2019-03-11T16:45:30.747Z,7.67
2019-03-11T16:48:01.534Z,6.10
2019-03-11T16:50:30.070Z,4.70
2019-03-11T16:52:58.874Z,4.40
2019-03-11T16:55:37.763Z,4.30
2019-03-11T16:58:09.179Z,4.37
2019-03-11T17:00:42.685Z,3.77
2019-03-11T17:03:11.385Z,3.57
2019-03-11T17:05:42.821Z,4.40
2019-03-11T17:08:11.369Z,3.93
2019-03-11T17:10:39.942Z,3.57
2019-03-11T17:13:08.469Z,2.80
2019-03-11T17:15:38.612Z,3.10
2019-03-11T17:18:07.517Z,3.45
2019-03-11T17:20:40.612Z,3.30
2019-03-11T17:23:09.122Z,3.63
2019-03-11T17:25:39.621Z,4.33
2019-03-11T17:28:10.460Z,4.77
2019-03-11T17:30:41.293Z,3.80
2019-03-11T17:33:09.827Z,4.10
2019-03-11T17:35:38.339Z,4.40
2019-03-11T17:38:09.385Z,3.97
2019-03-11T17:40:40.860Z,4.47
2019-03-11T17:43:12.616Z,4.10
2019-03-11T17:45:41.123Z,4.07
2019-03-11T17:48:11.845Z,4.50
2019-03-11T17:50:42.788Z,4.93
2019-03-11T17:53:19.547Z,4.47
2019-03-11T17:55:44.450Z,5.10
2019-03-11T17:58:14.179Z,5.37
2019-03-11T18:00:54.928Z,5.72
2019-03-11T18:03:15.344Z,6.80
2019-03-11T18:05:43.870Z,5.53
2019-03-11T18:08:12.315Z,5.70
2019-03-11T18:10:45.505Z,6.73
2019-03-11T18:13:13.954Z,5.80
2019-03-11T18:15:44.732Z,6.07
2019-03-11T18:18:18.808Z,6.33
2019-03-11T18:20:52.548Z,6.67
2019-03-11T18:23:21.009Z,5.97
2019-03-11T18:25:49.475Z,9.77
2019-03-11T18:28:19.120Z,8.80
2019-03-11T18:30:47.611Z,7.55
2019-03-11T18:33:16.131Z,7.10
2019-03-11T18:35:47.851Z,7.17
2019-03-11T18:38:16.387Z,6.30
2019-03-11T18:40:48.375Z,5.77
2019-03-11T18:43:21.013Z,6.60
2019-03-11T18:45:49.769Z,9.40
2019-03-11T18:48:20.225Z,7.50
2019-03-11T18:53:19.551Z,5.70
2019-03-11T18:55:48.183Z,5.10
2019-03-11T18:58:16.716Z,5.47
2019-03-11T19:00:46.040Z,5.10
2019-03-11T19:03:14.551Z,5.70
2019-03-11T19:05:43.093Z,4.57
2019-03-11T19:08:15.001Z,5.47
2019-03-11T19:10:43.513Z,5.00
2019-03-11T19:13:12.016Z,4.73
2019-03-11T19:15:43.261Z,4.93
2019-03-11T19:18:13.599Z,4.73
2019-03-11T19:20:45.315Z,4.15
2019-03-11T19:23:13.897Z,5.27
2019-03-11T19:25:47.222Z,5.47
2019-03-11T19:28:15.763Z,4.60
2019-03-11T19:30:44.374Z,5.07
2019-03-11T19:33:14.748Z,4.97
2019-03-11T19:38:15.413Z,4.37
2019-03-11T19:40:44.286Z,4.20
2019-03-11T19:43:18.632Z,4.60
2019-03-11T19:45:47.174Z,4.83
2019-03-11T19:48:16.941Z,4.57
2019-03-11T19:50:45.627Z,4.47
2019-03-11T19:53:14.195Z,4.50
2019-03-11T19:55:47.631Z,4.40
2019-03-11T19:58:17.007Z,4.83
2019-03-11T20:00:51.726Z,5.00
2019-03-11T20:03:26.873Z,5.10
2019-03-11T20:05:50.474Z,5.10
2019-03-11T20:08:20.199Z,5.00
2019-03-11T20:10:48.687Z,5.67
2019-03-11T20:13:17.289Z,4.97
2019-03-11T20:15:47.938Z,4.97
2019-03-11T20:18:16.567Z,6.10
2019-03-11T20:20:50.590Z,5.50
2019-03-11T20:23:24.283Z,5.67
2019-03-11T20:25:55.589Z,6.00
2019-03-11T20:28:24.162Z,5.13
2019-03-11T20:30:52.654Z,6.07
2019-03-11T20:33:25.420Z,4.87
2019-03-11T20:35:53.909Z,5.33
2019-03-11T20:38:24.874Z,5.77
2019-03-11T20:40:55.979Z,5.80
2019-03-11T20:43:25.676Z,6.13
2019-03-11T20:45:54.187Z,5.85
2019-03-11T20:48:23.974Z,6.17
2019-03-11T20:50:52.547Z,6.65
2019-03-11T20:53:21.055Z,6.50
2019-03-11T20:55:52.477Z,6.30
2019-03-11T20:58:21.015Z,7.00
2019-03-11T21:00:51.034Z,6.93
2019-03-11T21:03:21.968Z,8.15
2019-03-11T21:05:58.006Z,7.37
2019-03-11T21:08:26.508Z,7.93
2019-03-11T21:10:54.992Z,6.53
2019-03-11T21:13:26.012Z,8.10
2019-03-11T21:15:54.603Z,7.23
2019-03-11T21:18:28.640Z,7.60
2019-03-11T21:21:04.924Z,8.63
2019-03-11T21:23:27.336Z,8.78
2019-03-11T21:26:00.601Z,8.77
2019-03-11T21:28:29.128Z,9.87
2019-03-11T21:30:57.730Z,9.87
2019-03-11T21:33:30.687Z,8.93
2019-03-11T21:36:04.573Z,9.30
2019-03-11T21:38:36.121Z,8.67
2019-03-11T21:41:10.004Z,8.13
2019-03-11T21:43:40.396Z,7.70
2019-03-11T21:48:39.645Z,8.63
2019-03-11T21:51:08.176Z,9.20
2019-03-11T21:53:36.750Z,8.00
2019-03-11T21:56:11.432Z,7.73
2019-03-11T21:58:39.929Z,8.13
2019-03-11T22:01:08.416Z,8.47
2019-03-11T22:03:40.841Z,7.90
2019-03-11T22:06:09.358Z,7.80
2019-03-11T22:08:41.185Z,7.80
2019-03-11T22:11:12.823Z,8.00
2019-03-11T22:13:41.292Z,7.20
2019-03-11T22:16:12.458Z,8.17
2019-03-11T22:18:40.914Z,7.60
2019-03-11T22:21:13.122Z,7.00
2019-03-11T22:23:44.156Z,7.07
2019-03-11T22:26:12.606Z,7.60
2019-03-11T22:28:41.139Z,8.03
2019-03-11T22:31:09.680Z,8.30
2019-03-11T22:33:38.203Z,7.43
2019-03-11T22:36:08.100Z,7.47
2019-03-11T22:38:37.334Z,7.97
2019-03-11T22:41:09.804Z,9.03
2019-03-11T22:43:38.269Z,10.40
2019-03-11T22:46:07.582Z,9.10
2019-03-11T22:48:38.125Z,10.93
2019-03-11T22:51:06.585Z,9.57
2019-03-11T22:53:36.745Z,10.27
2019-03-11T22:56:05.284Z,12.70
2019-03-11T22:58:33.831Z,13.00
2019-03-11T23:01:08.134Z,12.43
2019-03-11T23:03:36.655Z,10.90
2019-03-11T23:06:06.619Z,13.60
2019-03-11T23:08:35.090Z,14.13
2019-03-11T23:11:05.304Z,13.63
2019-03-11T23:13:35.862Z,12.73
2019-03-11T23:16:07.519Z,12.83
2019-03-11T23:18:40.409Z,12.77
2019-03-11T23:21:13.927Z,13.00
2019-03-11T23:23:45.870Z,12.27
2019-03-11T23:26:14.338Z,13.43
2019-03-11T23:28:46.649Z,12.90
2019-03-11T23:31:15.113Z,13.07
2019-03-11T23:33:43.559Z,14.37
2019-03-11T23:36:14.145Z,13.07
2019-03-11T23:38:43.042Z,13.27
2019-03-11T23:41:11.505Z,10.07
2019-03-11T23:43:39.972Z,10.47
2019-03-11T23:46:11.551Z,13.00
2019-03-11T23:48:42.808Z,10.33
2019-03-11T23:51:11.330Z,9.27
2019-03-11T23:53:44.180Z,10.93
2019-03-11T23:56:12.641Z,13.07
2019-03-11T23:58:41.109Z,12.90
